May 23, 2022

Time Code Weather Temp. Visibility Clouds Wind METAR/SPECI
9:30 am
I
63 °F 6¼ mi+ 900 ft 290°   290° 20 kt METAR LFBH 230730Z AUTO 29020KT 9999 BKN009/// OVC021/// ///TCU 17/15 Q1006 BECMG 27010KT BKN030
9:00 am
I
63 °F 6¼ mi+ 700 ft 290°   290° 20 kt METAR LFBH 230700Z AUTO 29020KT 9999 OVC007/// ///CB 17/16 Q1006 TEMPO 4000 SHRA BECMG 27010KT BKN030
8:30 am
I
63 °F 6¼ mi+ 900 ft 290°   290° 22 kt METAR LFBH 230630Z AUTO 29022KT 9999 OVC009/// ///CB 17/16 Q1005 TEMPO 4000 SHRA BECMG 27010KT BKN030
8:00 am
I
63 °F 6¼ mi+ 900 ft 290°   290° 21 kt METAR LFBH 230600Z AUTO 29021KT 9999 OVC009/// ///TCU 17/16 Q1005 TEMPO 27015G30KT 4000 SHRA
7:30 am
I
63 °F 6¼ mi+ 800 ft 270°   270° 14 kt METAR LFBH 230530Z AUTO 27014KT 9999 -DZ BKN008/// OVC017/// ///CB 17/16 Q1005 TEMPO 27018G35KT 4000 SHRA BECMG NSC
7:00 am
I
63 °F 5⅝ mi 600 ft 280°   280° 15 kt METAR LFBH 230500Z AUTO 28015KT 9000 -RA BKN006/// OVC011/// ///CB 17/17 Q1004 TEMPO 27018G35KT 4000 SHRA
6:30 am
I
64 °F 6¼ mi+ 600 ft 260°   260° 7 kt METAR LFBH 230430Z AUTO 26007KT 230V290 9999 OVC006/// ///CB 18/18 Q1004 TEMPO 27018G35KT 4000 SHRA
6:00 am
I
64 °F 5⅝ mi 500 ft 250°   250° 8 kt METAR LFBH 230400Z AUTO 25008KT 9000 BKN005/// BKN011/// BKN020/// ///CB 18/17 Q1004 TEMPO 27018G35KT 4000 SHRA
5:30 am
I
64 °F 3⅛ mi 500 ft 240°   240° 7 kt METAR LFBH 230330Z AUTO 24007KT 210V280 5000 -RA BR BKN005/// BKN019/// BKN064/// ///CB 18/17 Q1004 TEMPO 27018G35KT SHRA
5:00 am
I
64 °F 6¼ mi+ 600 ft 250°   250° 10 kt METAR LFBH 230300Z AUTO 25010KT 9999 BKN006/// BKN038/// BKN072/// ///CB 18/17 Q1005 TEMPO 27018G35KT 4000 SHRA
4:30 am
I
64 °F 6¼ mi+ 700 ft 220°   220° 10 kt METAR LFBH 230230Z AUTO 22010KT 200V260 9999 BKN007/// OVC054/// ///CB 18/17 Q1005 TEMPO 27018G35KT 4000 SHRA
4:00 am
I
64 °F 6¼ mi+ 700 ft 220°   220° 12 kt METAR LFBH 230200Z AUTO 22012KT 9999 BKN007/// OVC098/// ///CB 18/17 Q1005 TEMPO 27018G35KT 4000 SHRA
3:30 am
I
66 °F 6¼ mi+ 900 ft 220°   220° 10 kt METAR LFBH 230130Z AUTO 22010KT 190V250 9999 OVC009 19/17 Q1005 TEMPO 27018G35KT 4000 SHRA BKN006 BKN050TCU
3:00 am
M
66 °F 6¼ mi+ 1,100 ft 200°   200° 8 kt METAR LFBH 230100Z AUTO 20008KT 170V230 9999 BKN011 BKN017 BKN210 19/17 Q1005 TEMPO VRB15G25KT 4000 TSRAGR BKN007 BKN070CB
2:30 am
V
66 °F 6¼ mi+ 20,000 ft 210°   210° 10 kt METAR LFBH 230030Z AUTO 21010KT 180V240 9999 VCTS FEW008/// BKN200/// BKN220/// ///CB 19/17 Q1005 TEMPO VRB15G25KT 4000 TSRAGR BKN007 BKN070CB
2:00 am
V
66 °F 6¼ mi+ - 230°   230° 12 kt METAR LFBH 230000Z AUTO 23012KT CAVOK 19/17 Q1004 TEMPO VRB15G25KT 4000 TSRAGR BKN007 BKN070CB
1:30 am
V
66 °F 6¼ mi+ - 190°   190° 11 kt METAR LFBH 222330Z AUTO 19011KT CAVOK 19/17 Q1006 TEMPO VRB15G25KT 4000 TSRAGR BKN070CB
1:00 am
V
66 °F 6¼ mi+ 3,800 ft 210°   210° 12 kt METAR LFBH 222300Z AUTO 21012KT 9999 FEW009 BKN038 BKN052 19/17 Q1006 TEMPO VRB15G25KT 4000 TSRAGR BKN070CB
12:30 am
V
66 °F 6¼ mi+ - 220°   220° 10 kt METAR LFBH 222230Z AUTO 22010KT 190V250 9999 FEW009 SCT140 19/17 Q1006 TEMPO VRB15G25KT 4000 TSRAGR BKN070CB
12:00 am
V
66 °F 6¼ mi+ - 230°   230° 12 kt METAR LFBH 222200Z AUTO 23012KT 170V260 CAVOK 19/17 Q1006 NOSIG

May 22, 2022

Time Code Weather Temp. Visibility Clouds Wind METAR/SPECI
11:30 pm
V
68 °F 6¼ mi+ - 230°   230° 14 kt METAR LFBH 222130Z AUTO 23014KT CAVOK 20/17 Q1005 BECMG 30010KT
11:00 pm
V
68 °F 6¼ mi+ - 230°   230° 13 kt METAR LFBH 222100Z AUTO 23013KT CAVOK 20/18 Q1005 TEMPO 4000 TSRAGR BKN070CB BECMG 30010KT
10:30 pm
V
70 °F 6¼ mi+ - 220°   220° 11 kt METAR LFBH 222030Z AUTO 22011KT CAVOK 21/17 Q1005 TEMPO 4000 TSRAGR BKN070CB BECMG 30010KT
10:00 pm
V
73 °F 6¼ mi+ - 220°   220° 6 kt METAR LFBH 222000Z AUTO 22006KT CAVOK 23/17 Q1005 TEMPO VRB15G25KT 4000 TSRAGR BKN070CB
9:30 pm
V
75 °F 6¼ mi+ - 220°   220° 6 kt METAR LFBH 221930Z AUTO 22006KT CAVOK 24/17 Q1005 TEMPO VRB15G25KT 4000 TSRAGR BKN070CB
9:00 pm
V
79 °F 6¼ mi+ - 210°   210° 3 kt METAR LFBH 221900Z AUTO 21003KT CAVOK 26/17 Q1005 TEMPO VRB15G25KT 4000 TSRAGR BKN070CB
8:30 pm
V
77 °F 6¼ mi+ - 260°   260° 5 kt METAR LFBH 221830Z AUTO 26005KT 220V310 9999 SCT048 SCT054 25/18 Q1005 TEMPO VRB15G25KT 4000 TSRAGR BKN070CB
8:00 pm
V
75 °F 6¼ mi+ - 290°   290° 6 kt METAR LFBH 221800Z AUTO 29006KT 9999 ///CB 24/18 Q1005 TEMPO VRB15G25KT 4000 TSRAGR
7:30 pm
V
75 °F 6¼ mi+ - 290°   290° 10 kt METAR LFBH 221730Z AUTO 29010KT CAVOK 24/18 Q1005 TEMPO VRB15G25KT 4000 TSRAGR BKN070CB
7:00 pm
V
73 °F 6¼ mi+ - 290°   290° 13 kt METAR LFBH 221700Z AUTO 29013KT 9999 ///CB 23/17 Q1005 TEMPO VRB15G25KT 4000 TSRAGR
6:30 pm
V
77 °F 6¼ mi+ - 300°   300° 10 kt METAR LFBH 221630Z AUTO 30010KT 9999 ///CB 25/19 Q1005 BECMG NSC
6:00 pm
V
79 °F 6¼ mi+ - 300°   300° 10 kt METAR LFBH 221600Z AUTO 30010KT CAVOK 26/18 Q1006 BECMG 24010KT
5:30 pm
V
84 °F 6¼ mi+ - 330°   330° 6 kt METAR LFBH 221530Z AUTO 33006KT CAVOK 29/20 Q1006 BECMG 24010KT
5:00 pm
V
84 °F 6¼ mi+ - 310°   310° 6 kt METAR LFBH 221500Z AUTO 31006KT CAVOK 29/18 Q1006 BECMG 24010KT
4:30 pm
V
86 °F 6¼ mi+ - 300°   300° 6 kt METAR LFBH 221430Z AUTO 30006KT 270V330 CAVOK 30/18 Q1006 NOSIG
4:00 pm
V
84 °F 6¼ mi+ - 280°   280° 5 kt METAR LFBH 221400Z AUTO 28005KT 230V310 CAVOK 29/18 Q1007 NOSIG
3:30 pm
V
84 °F 6¼ mi+ - 280°   280° 7 kt METAR LFBH 221330Z AUTO 28007KT CAVOK 29/18 Q1007 NOSIG
3:00 pm
V
84 °F 6¼ mi+ - 220°   220° 6 kt METAR LFBH 221300Z AUTO 22006KT CAVOK 29/17 Q1007 TEMPO 09010KT
2:30 pm
V
88 °F 6¼ mi+ - 150°   150° 6 kt METAR LFBH 221230Z AUTO 15006KT 090V260 CAVOK 31/18 Q1008 NOSIG
2:00 pm
V
86 °F 6¼ mi+ - 130°   130° 6 kt METAR LFBH 221200Z AUTO 13006KT 070V170 CAVOK 30/18 Q1008 NOSIG
1:30 pm
V
86 °F 6¼ mi+ - 110°   110° 6 kt METAR LFBH 221130Z AUTO 11006KT 050V170 CAVOK 30/18 Q1009 NOSIG
1:00 pm
V
82 °F 6¼ mi+ - 080°   080° 6 kt METAR LFBH 221100Z AUTO 08006KT 050V120 CAVOK 28/17 Q1009 NOSIG
12:30 pm
V
81 °F 6¼ mi+ - 080°   080° 6 kt METAR LFBH 221030Z AUTO 08006KT CAVOK 27/17 Q1009 NOSIG
12:00 pm
V
81 °F 6¼ mi+ - 080°   080° 4 kt METAR LFBH 221000Z AUTO 08004KT 030V130 CAVOK 27/17 Q1010 NOSIG
11:30 am
V
79 °F 6¼ mi+ - 090°   090° 9 kt METAR LFBH 220930Z AUTO 09009KT 060V120 CAVOK 26/16 Q1010 NOSIG
11:00 am
V
77 °F 6¼ mi+ - 090°   090° 10 kt METAR LFBH 220900Z AUTO 09010KT CAVOK 25/16 Q1010 NOSIG
10:30 am
V
77 °F 6¼ mi+ - 080°   080° 6 kt METAR LFBH 220830Z AUTO 08006KT 040V110 9999 ///TCU 25/15 Q1011 BECMG NSC
10:00 am
V
75 °F 6¼ mi+ - 080°   080° 8 kt METAR LFBH 220800Z AUTO 08008KT CAVOK 24/14 Q1011 NOSIG
9:30 am
V
72 °F 6¼ mi+ - 110°   110° 4 kt METAR LFBH 220730Z AUTO 11004KT 080V150 CAVOK 22/13 Q1012 NOSIG
9:00 am
V
70 °F 6¼ mi+ - 130°   130° 8 kt METAR LFBH 220700Z AUTO 13008KT CAVOK 21/13 Q1012 NOSIG
8:30 am
V
68 °F 6¼ mi+ - 130°   130° 7 kt METAR LFBH 220630Z AUTO 13007KT CAVOK 20/13 Q1011 NOSIG
8:00 am
V
66 °F 6¼ mi+ - 090°   090° 12 kt METAR LFBH 220600Z AUTO 09012KT 060V140 CAVOK 19/13 Q1011 NOSIG
7:30 am
V
66 °F 6¼ mi+ 15,000 ft 050°   050° 19 kt METAR LFBH 220530Z AUTO 05019KT 9999 FEW036/// BKN150/// ///CB 19/13 Q1009 BECMG NSC
7:00 am
V
68 °F 6¼ mi+ - 190°   190° 3 kt METAR LFBH 220500Z AUTO 19003KT 140V230 9999 ///CB 20/12 Q1014 BECMG 03010KT NSC
6:30 am
V
66 °F 6¼ mi+ - 060°   060° 7 kt METAR LFBH 220430Z AUTO 06007KT CAVOK 19/12 Q1013 TEMPO SCT100TCU
6:00 am
V
66 °F 6¼ mi+ - 020°   020° 11 kt METAR LFBH 220400Z AUTO 02011KT 9999 -RA NSC 19/13 Q1012 TEMPO SCT100TCU
5:30 am
V
68 °F 6¼ mi+ - 360°   360° 7 kt METAR LFBH 220330Z AUTO 36007KT 9999 ///TCU 20/14 Q1014 BECMG NSC
5:00 am
V
66 °F 6¼ mi+ - 340°   340° 6 kt METAR LFBH 220300Z AUTO 34006KT 320V030 CAVOK 19/13 Q1014 NOSIG
4:30 am
V
68 °F 6¼ mi+ - 040°   040° 6 kt METAR LFBH 220230Z AUTO 04006KT CAVOK 20/12 Q1013 NOSIG
4:00 am
V
68 °F 6¼ mi+ - 050°   050° 10 kt METAR LFBH 220200Z AUTO 05010KT CAVOK 20/12 Q1013 NOSIG
3:30 am
V
68 °F 6¼ mi+ - 050°   050° 9 kt METAR LFBH 220130Z AUTO 05009KT CAVOK 20/13 Q1013 NOSIG
3:00 am
V
68 °F 6¼ mi+ - 050°   050° 9 kt METAR LFBH 220100Z AUTO 05009KT CAVOK 20/12 Q1013 NOSIG
2:30 am
V
70 °F 6¼ mi+ - 040°   040° 8 kt METAR LFBH 220030Z AUTO 04008KT CAVOK 21/13 Q1014 NOSIG
2:00 am
V
70 °F 6¼ mi+ - 030°   030° 6 kt METAR LFBH 220000Z AUTO 03006KT CAVOK 21/13 Q1014 NOSIG
1:30 am
V
70 °F 6¼ mi+ - 030°   030° 5 kt METAR LFBH 212330Z AUTO 03005KT CAVOK 21/13 Q1015 NOSIG
1:00 am
V
72 °F 6¼ mi+ - 050°   050° 7 kt METAR LFBH 212300Z AUTO 05007KT CAVOK 22/12 Q1015 NOSIG
12:30 am
V
72 °F 6¼ mi+ - 050°   050° 7 kt METAR LFBH 212230Z AUTO 05007KT CAVOK 22/13 Q1015 NOSIG
12:00 am
V
73 °F 6¼ mi+ - 060°   060° 11 kt METAR LFBH 212200Z AUTO 06011KT CAVOK 23/13 Q1014 NOSIG

May 21, 2022

Time Code Weather Temp. Visibility Clouds Wind METAR/SPECI
11:30 pm
V
73 °F 6¼ mi+ - 060°   060° 8 kt METAR LFBH 212130Z AUTO 06008KT CAVOK 23/13 Q1015 NOSIG
11:00 pm
V
75 °F 6¼ mi+ - 050°   050° 10 kt METAR LFBH 212100Z AUTO 05010KT CAVOK 24/13 Q1015 NOSIG
10:30 pm
V
75 °F 6¼ mi+ - 040°   040° 9 kt METAR LFBH 212030Z AUTO 04009KT CAVOK 24/13 Q1015 NOSIG
10:00 pm
V
77 °F 6¼ mi+ - 040°   040° 8 kt METAR LFBH 212000Z AUTO 04008KT CAVOK 25/13 Q1015 NOSIG
9:30 pm
V
77 °F 6¼ mi+ - 020°   020° 8 kt METAR LFBH 211930Z AUTO 02008KT CAVOK 25/14 Q1016 NOSIG
9:00 pm
V
79 °F 6¼ mi+ - 020°   020° 8 kt METAR LFBH 211900Z AUTO 02008KT CAVOK 26/15 Q1015 NOSIG
8:30 pm
V
81 °F 6¼ mi+ - 020°   020° 8 kt METAR LFBH 211830Z AUTO 02008KT CAVOK 27/14 Q1016 NOSIG
8:00 pm
V
82 °F 6¼ mi+ - 040°   040° 8 kt METAR LFBH 211800Z AUTO 04008KT CAVOK 28/14 Q1016 NOSIG
7:30 pm
V
82 °F 6¼ mi+ - 040°   040° 11 kt METAR LFBH 211730Z AUTO 04011KT CAVOK 28/14 Q1015 NOSIG
7:00 pm
V
84 °F 6¼ mi+ - 030°   030° 10 kt METAR LFBH 211700Z AUTO 03010KT 360V060 CAVOK 29/14 Q1016 NOSIG
6:30 pm
V
84 °F 6¼ mi+ - 050°   050° 10 kt METAR LFBH 211630Z AUTO 05010KT CAVOK 29/14 Q1016 TEMPO 32010KT
6:00 pm
V
84 °F 6¼ mi+ - 030°   030° 9 kt METAR LFBH 211600Z AUTO 03009KT CAVOK 29/14 Q1016 TEMPO 32010KT
5:30 pm
V
84 °F 6¼ mi+ - 040°   040° 10 kt METAR LFBH 211530Z AUTO 04010KT 010V070 CAVOK 29/14 Q1016 NOSIG
5:00 pm
V
86 °F 6¼ mi+ - 050°   050° 8 kt METAR LFBH 211500Z AUTO 05008KT 010V080 CAVOK 30/14 Q1017 NOSIG
4:30 pm
V
86 °F 6¼ mi+ - 040°   040° 9 kt METAR LFBH 211430Z AUTO 04009KT 350V080 CAVOK 30/14 Q1017 NOSIG
4:00 pm
V
86 °F 6¼ mi+ - 070°   070° 9 kt METAR LFBH 211400Z AUTO 07009KT 020V120 CAVOK 30/14 Q1017 TEMPO 32010KT
3:30 pm
V
84 °F 6¼ mi+ - 080°   080° 5 kt METAR LFBH 211330Z AUTO 08005KT 040V130 CAVOK 29/14 Q1018 TEMPO 32010KT
3:00 pm
V
84 °F 6¼ mi+ - 070°   070° 8 kt METAR LFBH 211300Z AUTO 07008KT 030V110 CAVOK 29/13 Q1018 TEMPO 32010KT
2:30 pm
V
82 °F 6¼ mi+ - 050°   050° 7 kt METAR LFBH 211230Z AUTO 05007KT 340V120 9999 FEW047 28/14 Q1019 NOSIG
2:00 pm
V
82 °F 6¼ mi+ - 050°   050° 8 kt METAR LFBH 211200Z AUTO 05008KT 010V100 9999 FEW047 28/12 Q1019 NOSIG
1:30 pm
V
81 °F 6¼ mi+ - 060°   060° 9 kt METAR LFBH 211130Z AUTO 06009KT 030V090 CAVOK 27/12 Q1019 NOSIG
1:00 pm
V
81 °F 6¼ mi+ - 050°   050° 9 kt METAR LFBH 211100Z AUTO 05009KT 020V080 CAVOK 27/13 Q1019 NOSIG
12:30 pm
V
79 °F 6¼ mi+ - 090°   090° 7 kt METAR LFBH 211030Z AUTO 09007KT 030V140 CAVOK 26/14 Q1020 NOSIG
12:00 pm
V
79 °F 6¼ mi+ - 070°   070° 9 kt METAR LFBH 211000Z AUTO 07009KT 040V110 CAVOK 26/14 Q1020 NOSIG
11:30 am
V
77 °F 6¼ mi+ - 080°   080° 9 kt METAR LFBH 210930Z AUTO 08009KT 050V110 CAVOK 25/15 Q1020 NOSIG
11:00 am
V
73 °F 6¼ mi+ - 070°   070° 9 kt METAR LFBH 210900Z AUTO 07009KT 030V090 CAVOK 23/15 Q1020 NOSIG
10:30 am
V
72 °F 6¼ mi+ - 060°   060° 6 kt METAR LFBH 210830Z AUTO 06006KT 030V090 CAVOK 22/15 Q1021 NOSIG
10:00 am
V
68 °F 6¼ mi+ - 070°   070° 7 kt METAR LFBH 210800Z AUTO 07007KT 040V100 CAVOK 20/15 Q1021 NOSIG
9:30 am
V
66 °F 6¼ mi+ - 070°   070° 7 kt METAR LFBH 210730Z AUTO 07007KT CAVOK 19/14 Q1021 NOSIG
9:00 am
V
63 °F 6¼ mi+ - 080°   080° 8 kt METAR LFBH 210700Z AUTO 08008KT CAVOK 17/13 Q1021 NOSIG
Older data

Download our app

Easy access to all aviation weather on your mobile phone and tablet.
With many features not available on the website, like offline support and a personal airport list.

We and third parties follow your internet behavior on our website with cookies. If you continue, we assume you agree with our cookie policy. Learn more